sensor_id;sensor_type;location;lat;lon;timestamp;temperature;humidity
15107;DHT22;7654;45.308;-75.096;2024-02-04T00:01:15;-3.10;99.90
15107;DHT22;7654;45.308;-75.096;2024-02-04T00:03:47;-3.10;99.90
15107;DHT22;7654;45.308;-75.096;2024-02-04T00:06:18;-3.20;99.90
15107;DHT22;7654;45.308;-75.096;2024-02-04T00:08:48;-3.20;99.90
15107;DHT22;7654;45.308;-75.096;2024-02-04T00:11:20;-3.10;99.90
15107;DHT22;7654;45.308;-75.096;2024-02-04T00:13:50;-3.10;99.90
15107;DHT22;7654;45.308;-75.096;2024-02-04T00:16:23;-3.10;99.90
15107;DHT22;7654;45.308;-75.096;2024-02-04T00:18:55;-3.10;99.90
15107;DHT22;7654;45.308;-75.096;2024-02-04T00:21:26;-3.10;99.90
15107;DHT22;7654;45.308;-75.096;2024-02-04T00:23:56;-3.10;99.90
15107;DHT22;7654;45.308;-75.096;2024-02-04T00:26:28;-3.10;99.90
15107;DHT22;7654;45.308;-75.096;2024-02-04T00:28:59;-3.00;99.90
15107;DHT22;7654;45.308;-75.096;2024-02-04T00:31:29;-3.00;99.90
15107;DHT22;7654;45.308;-75.096;2024-02-04T00:34:01;-3.00;99.90
15107;DHT22;7654;45.308;-75.096;2024-02-04T00:36:31;-3.10;99.90
15107;DHT22;7654;45.308;-75.096;2024-02-04T00:39:02;-3.10;99.90
15107;DHT22;7654;45.308;-75.096;2024-02-04T00:41:35;-3.10;99.90
15107;DHT22;7654;45.308;-75.096;2024-02-04T00:44:06;-3.20;99.90
15107;DHT22;7654;45.308;-75.096;2024-02-04T00:46:37;-3.30;99.90
15107;DHT22;7654;45.308;-75.096;2024-02-04T00:49:12;-3.40;99.90
15107;DHT22;7654;45.308;-75.096;2024-02-04T00:51:43;-3.50;99.90
15107;DHT22;7654;45.308;-75.096;2024-02-04T00:54:14;-3.60;99.90
15107;DHT22;7654;45.308;-75.096;2024-02-04T00:56:44;-3.70;99.90
15107;DHT22;7654;45.308;-75.096;2024-02-04T00:59:14;-3.80;99.90
15107;DHT22;7654;45.308;-75.096;2024-02-04T01:01:44;-3.80;99.90
15107;DHT22;7654;45.308;-75.096;2024-02-04T01:04:17;-3.90;99.90
15107;DHT22;7654;45.308;-75.096;2024-02-04T01:06:47;-3.90;99.90
15107;DHT22;7654;45.308;-75.096;2024-02-04T01:09:28;-4.00;99.90
15107;DHT22;7654;45.308;-75.096;2024-02-04T01:11:59;-4.00;99.90
15107;DHT22;7654;45.308;-75.096;2024-02-04T01:14:30;-4.00;99.90
15107;DHT22;7654;45.308;-75.096;2024-02-04T01:17:00;-3.90;99.90
15107;DHT22;7654;45.308;-75.096;2024-02-04T01:19:32;-3.90;99.90
15107;DHT22;7654;45.308;-75.096;2024-02-04T01:22:03;-3.80;99.90
15107;DHT22;7654;45.308;-75.096;2024-02-04T01:24:35;-3.80;99.90
15107;DHT22;7654;45.308;-75.096;2024-02-04T01:27:05;-3.70;99.90
15107;DHT22;7654;45.308;-75.096;2024-02-04T01:29:36;-3.70;99.90
15107;DHT22;7654;45.308;-75.096;2024-02-04T01:32:06;-3.70;99.90
15107;DHT22;7654;45.308;-75.096;2024-02-04T01:34:39;-3.70;99.90
15107;DHT22;7654;45.308;-75.096;2024-02-04T01:37:09;-3.70;99.90
15107;DHT22;7654;45.308;-75.096;2024-02-04T01:39:40;-3.80;99.90
15107;DHT22;7654;45.308;-75.096;2024-02-04T01:42:10;-3.80;99.90
15107;DHT22;7654;45.308;-75.096;2024-02-04T01:44:41;-3.80;99.90
15107;DHT22;7654;45.308;-75.096;2024-02-04T01:47:11;-3.90;99.90
15107;DHT22;7654;45.308;-75.096;2024-02-04T01:49:45;-3.90;99.90
15107;DHT22;7654;45.308;-75.096;2024-02-04T01:52:16;-3.90;99.90
15107;DHT22;7654;45.308;-75.096;2024-02-04T01:54:47;-3.90;99.90
15107;DHT22;7654;45.308;-75.096;2024-02-04T01:57:18;-4.00;99.90
15107;DHT22;7654;45.308;-75.096;2024-02-04T01:59:50;-4.00;99.90
15107;DHT22;7654;45.308;-75.096;2024-02-04T02:02:23;-4.00;99.90
15107;DHT22;7654;45.308;-75.096;2024-02-04T02:04:55;-4.00;99.90
15107;DHT22;7654;45.308;-75.096;2024-02-04T02:07:26;-4.00;99.90
15107;DHT22;7654;45.308;-75.096;2024-02-04T02:09:57;-3.90;99.90
15107;DHT22;7654;45.308;-75.096;2024-02-04T02:12:33;-3.90;99.90
15107;DHT22;7654;45.308;-75.096;2024-02-04T02:15:10;-3.90;99.90
15107;DHT22;7654;45.308;-75.096;2024-02-04T02:17:47;-4.00;99.90
15107;DHT22;7654;45.308;-75.096;2024-02-04T02:20:25;-4.00;99.90
15107;DHT22;7654;45.308;-75.096;2024-02-04T02:23:05;-4.00;99.90
15107;DHT22;7654;45.308;-75.096;2024-02-04T02:25:38;-4.10;99.90
15107;DHT22;7654;45.308;-75.096;2024-02-04T02:28:09;-4.20;99.90
15107;DHT22;7654;45.308;-75.096;2024-02-04T02:30:40;-4.30;99.90
15107;DHT22;7654;45.308;-75.096;2024-02-04T02:33:10;-4.30;99.90
15107;DHT22;7654;45.308;-75.096;2024-02-04T02:35:42;-4.40;99.90
15107;DHT22;7654;45.308;-75.096;2024-02-04T02:38:24;-4.50;99.90
15107;DHT22;7654;45.308;-75.096;2024-02-04T02:40:59;-4.60;99.90
15107;DHT22;7654;45.308;-75.096;2024-02-04T02:43:30;-4.50;99.90
15107;DHT22;7654;45.308;-75.096;2024-02-04T02:46:02;-4.60;99.90
15107;DHT22;7654;45.308;-75.096;2024-02-04T02:48:33;-4.70;99.90
15107;DHT22;7654;45.308;-75.096;2024-02-04T02:51:05;-4.90;99.90
15107;DHT22;7654;45.308;-75.096;2024-02-04T02:53:36;-5.00;99.90
15107;DHT22;7654;45.308;-75.096;2024-02-04T02:56:08;-5.10;99.90
15107;DHT22;7654;45.308;-75.096;2024-02-04T02:58:39;-5.30;99.90
15107;DHT22;7654;45.308;-75.096;2024-02-04T03:01:09;-5.50;99.90
15107;DHT22;7654;45.308;-75.096;2024-02-04T03:03:39;-5.60;99.90
15107;DHT22;7654;45.308;-75.096;2024-02-04T03:06:10;-5.70;99.90
15107;DHT22;7654;45.308;-75.096;2024-02-04T03:08:40;-5.80;99.90
15107;DHT22;7654;45.308;-75.096;2024-02-04T03:11:12;-5.90;99.90
15107;DHT22;7654;45.308;-75.096;2024-02-04T03:16:34;-6.10;99.90
15107;DHT22;7654;45.308;-75.096;2024-02-04T03:19:05;-6.20;99.90
15107;DHT22;7654;45.308;-75.096;2024-02-04T03:21:36;-6.20;99.90
15107;DHT22;7654;45.308;-75.096;2024-02-04T03:24:06;-6.20;99.90
15107;DHT22;7654;45.308;-75.096;2024-02-04T03:26:38;-6.30;99.90
15107;DHT22;7654;45.308;-75.096;2024-02-04T03:29:09;-6.40;99.90
15107;DHT22;7654;45.308;-75.096;2024-02-04T03:31:40;-6.50;99.90
15107;DHT22;7654;45.308;-75.096;2024-02-04T03:34:10;-6.60;99.90
15107;DHT22;7654;45.308;-75.096;2024-02-04T03:36:41;-6.60;99.90
15107;DHT22;7654;45.308;-75.096;2024-02-04T03:39:11;-6.70;99.90
15107;DHT22;7654;45.308;-75.096;2024-02-04T03:41:43;-6.80;99.90
15107;DHT22;7654;45.308;-75.096;2024-02-04T03:44:13;-6.90;99.90
15107;DHT22;7654;45.308;-75.096;2024-02-04T03:46:46;-6.90;99.90
15107;DHT22;7654;45.308;-75.096;2024-02-04T03:49:17;-7.00;99.90
15107;DHT22;7654;45.308;-75.096;2024-02-04T03:51:48;-7.00;99.90
15107;DHT22;7654;45.308;-75.096;2024-02-04T03:54:18;-7.00;99.90
15107;DHT22;7654;45.308;-75.096;2024-02-04T03:56:50;-7.00;99.90
15107;DHT22;7654;45.308;-75.096;2024-02-04T03:59:20;-7.00;99.90
15107;DHT22;7654;45.308;-75.096;2024-02-04T04:01:51;-7.00;99.90
15107;DHT22;7654;45.308;-75.096;2024-02-04T04:04:23;-7.00;99.90
15107;DHT22;7654;45.308;-75.096;2024-02-04T04:06:54;-7.00;99.90
15107;DHT22;7654;45.308;-75.096;2024-02-04T04:09:25;-7.20;99.90
15107;DHT22;7654;45.308;-75.096;2024-02-04T04:11:56;-7.30;99.90
15107;DHT22;7654;45.308;-75.096;2024-02-04T04:14:27;-7.40;99.90
15107;DHT22;7654;45.308;-75.096;2024-02-04T04:16:57;-7.60;99.90
15107;DHT22;7654;45.308;-75.096;2024-02-04T04:19:27;-7.70;99.90
15107;DHT22;7654;45.308;-75.096;2024-02-04T04:21:57;-7.80;99.90
15107;DHT22;7654;45.308;-75.096;2024-02-04T04:24:29;-7.80;99.90
15107;DHT22;7654;45.308;-75.096;2024-02-04T04:27:03;-7.90;99.90
15107;DHT22;7654;45.308;-75.096;2024-02-04T04:29:33;-8.00;99.90
15107;DHT22;7654;45.308;-75.096;2024-02-04T04:32:04;-8.10;99.90
15107;DHT22;7654;45.308;-75.096;2024-02-04T04:34:34;-8.10;99.90
15107;DHT22;7654;45.308;-75.096;2024-02-04T04:37:04;-8.20;99.90
15107;DHT22;7654;45.308;-75.096;2024-02-04T04:39:35;-8.30;99.90
15107;DHT22;7654;45.308;-75.096;2024-02-04T04:42:07;-8.30;99.90
15107;DHT22;7654;45.308;-75.096;2024-02-04T04:44:37;-8.40;99.90
15107;DHT22;7654;45.308;-75.096;2024-02-04T04:47:07;-8.40;99.90
15107;DHT22;7654;45.308;-75.096;2024-02-04T04:49:37;-8.50;99.90
15107;DHT22;7654;45.308;-75.096;2024-02-04T04:52:08;-8.50;99.90
15107;DHT22;7654;45.308;-75.096;2024-02-04T04:54:38;-8.60;99.90
15107;DHT22;7654;45.308;-75.096;2024-02-04T04:57:10;-8.70;99.90
15107;DHT22;7654;45.308;-75.096;2024-02-04T04:59:40;-8.70;99.90
15107;DHT22;7654;45.308;-75.096;2024-02-04T05:02:11;-8.60;99.90
15107;DHT22;7654;45.308;-75.096;2024-02-04T05:04:43;-8.60;99.90
15107;DHT22;7654;45.308;-75.096;2024-02-04T05:07:13;-8.70;99.90
15107;DHT22;7654;45.308;-75.096;2024-02-04T05:09:44;-8.70;99.90
15107;DHT22;7654;45.308;-75.096;2024-02-04T05:12:16;-8.80;99.90
15107;DHT22;7654;45.308;-75.096;2024-02-04T05:14:46;-8.80;99.90
15107;DHT22;7654;45.308;-75.096;2024-02-04T05:17:16;-8.80;99.90
15107;DHT22;7654;45.308;-75.096;2024-02-04T05:19:46;-8.80;99.90
15107;DHT22;7654;45.308;-75.096;2024-02-04T05:22:16;-9.00;99.90
15107;DHT22;7654;45.308;-75.096;2024-02-04T05:24:47;-9.00;99.90
15107;DHT22;7654;45.308;-75.096;2024-02-04T05:27:19;-9.00;99.90
15107;DHT22;7654;45.308;-75.096;2024-02-04T05:29:49;-8.90;99.90
15107;DHT22;7654;45.308;-75.096;2024-02-04T05:32:20;-8.90;99.90
15107;DHT22;7654;45.308;-75.096;2024-02-04T05:34:50;-9.00;99.90
15107;DHT22;7654;45.308;-75.096;2024-02-04T05:37:20;-9.00;99.90
15107;DHT22;7654;45.308;-75.096;2024-02-04T05:39:50;-9.10;99.90
15107;DHT22;7654;45.308;-75.096;2024-02-04T05:42:22;-9.00;99.90
15107;DHT22;7654;45.308;-75.096;2024-02-04T05:44:52;-9.20;99.90
15107;DHT22;7654;45.308;-75.096;2024-02-04T05:47:22;-9.30;99.90
15107;DHT22;7654;45.308;-75.096;2024-02-04T05:49:52;-9.40;99.90
15107;DHT22;7654;45.308;-75.096;2024-02-04T05:52:23;-9.40;99.90
15107;DHT22;7654;45.308;-75.096;2024-02-04T05:54:53;-9.40;99.90
15107;DHT22;7654;45.308;-75.096;2024-02-04T05:57:28;-9.40;99.90
15107;DHT22;7654;45.308;-75.096;2024-02-04T05:59:58;-9.40;99.90
15107;DHT22;7654;45.308;-75.096;2024-02-04T06:02:28;-9.50;99.90
15107;DHT22;7654;45.308;-75.096;2024-02-04T06:04:58;-9.50;99.90
15107;DHT22;7654;45.308;-75.096;2024-02-04T06:07:29;-9.40;99.90
15107;DHT22;7654;45.308;-75.096;2024-02-04T06:09:59;-9.40;99.90
15107;DHT22;7654;45.308;-75.096;2024-02-04T06:12:33;-9.50;99.90
15107;DHT22;7654;45.308;-75.096;2024-02-04T06:15:04;-9.60;99.90
15107;DHT22;7654;45.308;-75.096;2024-02-04T06:17:34;-9.50;99.90
15107;DHT22;7654;45.308;-75.096;2024-02-04T06:20:05;-9.40;99.90
15107;DHT22;7654;45.308;-75.096;2024-02-04T06:22:36;-9.40;99.90
15107;DHT22;7654;45.308;-75.096;2024-02-04T06:25:07;-9.40;99.90
15107;DHT22;7654;45.308;-75.096;2024-02-04T06:27:39;-9.50;99.90
15107;DHT22;7654;45.308;-75.096;2024-02-04T06:30:11;-9.50;99.90
15107;DHT22;7654;45.308;-75.096;2024-02-04T06:32:41;-9.50;99.90
15107;DHT22;7654;45.308;-75.096;2024-02-04T06:35:12;-9.50;99.90
15107;DHT22;7654;45.308;-75.096;2024-02-04T06:37:42;-9.60;99.90
15107;DHT22;7654;45.308;-75.096;2024-02-04T06:40:12;-9.80;99.90
15107;DHT22;7654;45.308;-75.096;2024-02-04T06:42:44;-9.80;99.90
15107;DHT22;7654;45.308;-75.096;2024-02-04T06:45:14;-9.80;99.90
15107;DHT22;7654;45.308;-75.096;2024-02-04T06:47:45;-9.80;99.90
15107;DHT22;7654;45.308;-75.096;2024-02-04T06:50:15;-9.80;99.90
15107;DHT22;7654;45.308;-75.096;2024-02-04T06:52:46;-9.90;99.90
15107;DHT22;7654;45.308;-75.096;2024-02-04T06:55:17;-10.00;99.90
15107;DHT22;7654;45.308;-75.096;2024-02-04T06:57:48;-10.10;99.90
15107;DHT22;7654;45.308;-75.096;2024-02-04T07:00:19;-10.10;99.90
15107;DHT22;7654;45.308;-75.096;2024-02-04T07:02:50;-10.20;99.90
15107;DHT22;7654;45.308;-75.096;2024-02-04T07:05:20;-10.10;99.90
15107;DHT22;7654;45.308;-75.096;2024-02-04T07:07:51;-10.10;99.90
15107;DHT22;7654;45.308;-75.096;2024-02-04T07:10:22;-10.10;99.90
15107;DHT22;7654;45.308;-75.096;2024-02-04T07:12:52;-10.20;99.90
15107;DHT22;7654;45.308;-75.096;2024-02-04T07:15:22;-10.20;99.90
15107;DHT22;7654;45.308;-75.096;2024-02-04T07:17:52;-10.20;99.90
15107;DHT22;7654;45.308;-75.096;2024-02-04T07:20:23;-10.30;99.90
15107;DHT22;7654;45.308;-75.096;2024-02-04T07:22:53;-10.30;99.90
15107;DHT22;7654;45.308;-75.096;2024-02-04T07:25:27;-10.30;99.90
15107;DHT22;7654;45.308;-75.096;2024-02-04T07:27:58;-10.30;99.90
15107;DHT22;7654;45.308;-75.096;2024-02-04T07:30:29;-10.30;99.90
15107;DHT22;7654;45.308;-75.096;2024-02-04T07:33:00;-10.30;99.90
15107;DHT22;7654;45.308;-75.096;2024-02-04T07:35:30;-10.30;99.90
15107;DHT22;7654;45.308;-75.096;2024-02-04T07:38:00;-10.20;99.90
15107;DHT22;7654;45.308;-75.096;2024-02-04T07:40:31;-10.10;99.90
15107;DHT22;7654;45.308;-75.096;2024-02-04T07:43:03;-10.10;99.90
15107;DHT22;7654;45.308;-75.096;2024-02-04T07:45:34;-10.10;99.90
15107;DHT22;7654;45.308;-75.096;2024-02-04T07:48:05;-10.10;99.90
15107;DHT22;7654;45.308;-75.096;2024-02-04T07:50:37;-10.20;99.90
15107;DHT22;7654;45.308;-75.096;2024-02-04T07:53:07;-10.30;99.90
15107;DHT22;7654;45.308;-75.096;2024-02-04T07:55:38;-10.30;99.90
15107;DHT22;7654;45.308;-75.096;2024-02-04T07:58:09;-10.40;99.90
15107;DHT22;7654;45.308;-75.096;2024-02-04T08:00:40;-10.40;99.90
15107;DHT22;7654;45.308;-75.096;2024-02-04T08:03:10;-10.40;99.90
15107;DHT22;7654;45.308;-75.096;2024-02-04T08:05:40;-10.40;99.90
15107;DHT22;7654;45.308;-75.096;2024-02-04T08:08:11;-10.30;99.90
15107;DHT22;7654;45.308;-75.096;2024-02-04T08:10:41;-10.40;99.90
15107;DHT22;7654;45.308;-75.096;2024-02-04T08:13:13;-10.50;99.90
15107;DHT22;7654;45.308;-75.096;2024-02-04T08:15:44;-10.60;99.90
15107;DHT22;7654;45.308;-75.096;2024-02-04T08:18:14;-10.60;99.90
15107;DHT22;7654;45.308;-75.096;2024-02-04T08:20:44;-10.70;99.90
15107;DHT22;7654;45.308;-75.096;2024-02-04T08:23:15;-10.70;99.90
15107;DHT22;7654;45.308;-75.096;2024-02-04T08:25:45;-10.50;99.90
15107;DHT22;7654;45.308;-75.096;2024-02-04T08:28:19;-10.60;99.90
15107;DHT22;7654;45.308;-75.096;2024-02-04T08:30:50;-10.70;99.90
15107;DHT22;7654;45.308;-75.096;2024-02-04T08:33:20;-10.80;99.90
15107;DHT22;7654;45.308;-75.096;2024-02-04T08:35:51;-10.80;99.90
15107;DHT22;7654;45.308;-75.096;2024-02-04T08:38:21;-10.90;99.90
15107;DHT22;7654;45.308;-75.096;2024-02-04T08:40:51;-10.90;99.90
15107;DHT22;7654;45.308;-75.096;2024-02-04T08:43:23;-10.90;99.90
15107;DHT22;7654;45.308;-75.096;2024-02-04T08:45:53;-10.90;99.90
15107;DHT22;7654;45.308;-75.096;2024-02-04T08:48:23;-11.00;99.90
15107;DHT22;7654;45.308;-75.096;2024-02-04T08:50:54;-10.90;99.90
15107;DHT22;7654;45.308;-75.096;2024-02-04T08:53:24;-11.00;99.90
15107;DHT22;7654;45.308;-75.096;2024-02-04T08:55:54;-11.00;99.90
15107;DHT22;7654;45.308;-75.096;2024-02-04T08:58:25;-11.10;99.90
15107;DHT22;7654;45.308;-75.096;2024-02-04T09:00:56;-11.10;99.90
15107;DHT22;7654;45.308;-75.096;2024-02-04T09:03:27;-11.00;99.90
15107;DHT22;7654;45.308;-75.096;2024-02-04T09:05:58;-11.00;99.90
15107;DHT22;7654;45.308;-75.096;2024-02-04T09:08:28;-11.00;99.90
15107;DHT22;7654;45.308;-75.096;2024-02-04T09:10:58;-11.10;99.90
15107;DHT22;7654;45.308;-75.096;2024-02-04T09:13:30;-11.00;99.90
15107;DHT22;7654;45.308;-75.096;2024-02-04T09:16:00;-11.10;99.90
15107;DHT22;7654;45.308;-75.096;2024-02-04T09:18:31;-11.00;99.90
15107;DHT22;7654;45.308;-75.096;2024-02-04T09:21:01;-11.00;99.90
15107;DHT22;7654;45.308;-75.096;2024-02-04T09:23:32;-11.00;99.90
15107;DHT22;7654;45.308;-75.096;2024-02-04T09:26:02;-11.10;99.90
15107;DHT22;7654;45.308;-75.096;2024-02-04T09:28:34;-11.10;99.90
15107;DHT22;7654;45.308;-75.096;2024-02-04T09:31:08;-11.10;99.90
15107;DHT22;7654;45.308;-75.096;2024-02-04T09:33:39;-11.00;99.90
15107;DHT22;7654;45.308;-75.096;2024-02-04T09:36:10;-11.10;99.90
15107;DHT22;7654;45.308;-75.096;2024-02-04T09:38:40;-11.10;99.90
15107;DHT22;7654;45.308;-75.096;2024-02-04T09:41:11;-11.10;99.90
15107;DHT22;7654;45.308;-75.096;2024-02-04T09:43:43;-11.00;99.90
15107;DHT22;7654;45.308;-75.096;2024-02-04T09:46:14;-10.80;99.90
15107;DHT22;7654;45.308;-75.096;2024-02-04T09:48:45;-10.50;99.90
15107;DHT22;7654;45.308;-75.096;2024-02-04T09:51:16;-10.20;99.90
15107;DHT22;7654;45.308;-75.096;2024-02-04T09:53:46;-9.90;99.90
15107;DHT22;7654;45.308;-75.096;2024-02-04T09:56:18;-9.60;99.90
15107;DHT22;7654;45.308;-75.096;2024-02-04T09:58:51;-9.40;99.90
15107;DHT22;7654;45.308;-75.096;2024-02-04T10:01:21;-9.00;99.90
15107;DHT22;7654;45.308;-75.096;2024-02-04T10:03:53;-8.80;99.90
15107;DHT22;7654;45.308;-75.096;2024-02-04T10:06:24;-8.60;99.90
15107;DHT22;7654;45.308;-75.096;2024-02-04T10:08:54;-8.40;99.90
15107;DHT22;7654;45.308;-75.096;2024-02-04T10:11:25;-8.20;99.90
15107;DHT22;7654;45.308;-75.096;2024-02-04T10:13:57;-8.10;99.90
15107;DHT22;7654;45.308;-75.096;2024-02-04T10:16:28;-8.00;99.90
15107;DHT22;7654;45.308;-75.096;2024-02-04T10:18:58;-7.80;99.90
15107;DHT22;7654;45.308;-75.096;2024-02-04T10:21:28;-7.70;99.90
15107;DHT22;7654;45.308;-75.096;2024-02-04T10:23:58;-7.60;99.90
15107;DHT22;7654;45.308;-75.096;2024-02-04T10:26:29;-7.60;99.90
15107;DHT22;7654;45.308;-75.096;2024-02-04T10:29:04;-7.50;99.90
15107;DHT22;7654;45.308;-75.096;2024-02-04T10:31:34;-7.40;99.90
15107;DHT22;7654;45.308;-75.096;2024-02-04T10:34:06;-7.40;99.90
15107;DHT22;7654;45.308;-75.096;2024-02-04T10:36:36;-7.30;99.90
15107;DHT22;7654;45.308;-75.096;2024-02-04T10:39:07;-7.30;99.90
15107;DHT22;7654;45.308;-75.096;2024-02-04T10:41:41;-7.20;99.90
15107;DHT22;7654;45.308;-75.096;2024-02-04T10:44:16;-7.20;99.90
15107;DHT22;7654;45.308;-75.096;2024-02-04T10:46:47;-7.20;99.90
15107;DHT22;7654;45.308;-75.096;2024-02-04T10:49:19;-7.10;99.90
15107;DHT22;7654;45.308;-75.096;2024-02-04T10:51:51;-7.10;99.90
15107;DHT22;7654;45.308;-75.096;2024-02-04T10:54:26;-7.00;99.90
15107;DHT22;7654;45.308;-75.096;2024-02-04T10:57:03;-7.00;99.90
15107;DHT22;7654;45.308;-75.096;2024-02-04T10:59:37;-6.90;99.90
15107;DHT22;7654;45.308;-75.096;2024-02-04T11:02:07;-6.90;99.90
15107;DHT22;7654;45.308;-75.096;2024-02-04T11:04:38;-6.90;99.90
15107;DHT22;7654;45.308;-75.096;2024-02-04T11:07:10;-6.90;99.90
15107;DHT22;7654;45.308;-75.096;2024-02-04T11:09:42;-6.90;99.90
15107;DHT22;7654;45.308;-75.096;2024-02-04T11:12:18;-6.90;99.90
15107;DHT22;7654;45.308;-75.096;2024-02-04T11:14:53;-6.90;99.90
15107;DHT22;7654;45.308;-75.096;2024-02-04T11:20:45;-6.90;99.90
15107;DHT22;7654;45.308;-75.096;2024-02-04T11:23:30;-7.00;99.90
15107;DHT22;7654;45.308;-75.096;2024-02-04T11:26:05;-6.90;99.90
15107;DHT22;7654;45.308;-75.096;2024-02-04T11:28:36;-6.90;99.90
15107;DHT22;7654;45.308;-75.096;2024-02-04T11:31:17;-6.80;99.90
15107;DHT22;7654;45.308;-75.096;2024-02-04T11:33:51;-6.80;99.90
15107;DHT22;7654;45.308;-75.096;2024-02-04T11:36:25;-6.80;99.90
15107;DHT22;7654;45.308;-75.096;2024-02-04T11:38:55;-6.70;99.90
15107;DHT22;7654;45.308;-75.096;2024-02-04T11:41:26;-6.70;99.90
15107;DHT22;7654;45.308;-75.096;2024-02-04T11:43:57;-6.70;99.90
15107;DHT22;7654;45.308;-75.096;2024-02-04T11:46:32;-6.70;99.90
15107;DHT22;7654;45.308;-75.096;2024-02-04T11:49:02;-6.70;99.90
15107;DHT22;7654;45.308;-75.096;2024-02-04T11:51:33;-6.70;99.90
15107;DHT22;7654;45.308;-75.096;2024-02-04T11:54:06;-6.70;99.90
15107;DHT22;7654;45.308;-75.096;2024-02-04T11:56:36;-6.70;99.90
15107;DHT22;7654;45.308;-75.096;2024-02-04T11:59:07;-6.70;99.90
15107;DHT22;7654;45.308;-75.096;2024-02-04T12:01:39;-6.70;99.90
15107;DHT22;7654;45.308;-75.096;2024-02-04T12:04:11;-6.70;99.90
15107;DHT22;7654;45.308;-75.096;2024-02-04T12:06:42;-6.70;99.90
15107;DHT22;7654;45.308;-75.096;2024-02-04T12:09:15;-6.70;99.90
15107;DHT22;7654;45.308;-75.096;2024-02-04T12:11:47;-6.70;99.90
15107;DHT22;7654;45.308;-75.096;2024-02-04T12:14:18;-6.70;99.90
15107;DHT22;7654;45.308;-75.096;2024-02-04T12:16:50;-6.60;99.90
15107;DHT22;7654;45.308;-75.096;2024-02-04T12:19:21;-6.60;99.90
15107;DHT22;7654;45.308;-75.096;2024-02-04T12:21:53;-6.50;99.90
15107;DHT22;7654;45.308;-75.096;2024-02-04T12:24:24;-6.50;99.90
15107;DHT22;7654;45.308;-75.096;2024-02-04T12:26:54;-6.50;99.90
15107;DHT22;7654;45.308;-75.096;2024-02-04T12:29:25;-6.40;99.90
15107;DHT22;7654;45.308;-75.096;2024-02-04T12:32:00;-6.40;99.90
15107;DHT22;7654;45.308;-75.096;2024-02-04T12:34:31;-6.30;99.90
15107;DHT22;7654;45.308;-75.096;2024-02-04T12:37:03;-6.30;99.90
15107;DHT22;7654;45.308;-75.096;2024-02-04T12:39:33;-6.20;99.90
15107;DHT22;7654;45.308;-75.096;2024-02-04T12:42:04;-6.20;99.90
15107;DHT22;7654;45.308;-75.096;2024-02-04T12:44:35;-6.20;99.90
15107;DHT22;7654;45.308;-75.096;2024-02-04T12:47:07;-6.10;99.90
15107;DHT22;7654;45.308;-75.096;2024-02-04T12:49:37;-6.10;99.90
15107;DHT22;7654;45.308;-75.096;2024-02-04T12:52:08;-6.00;99.90
15107;DHT22;7654;45.308;-75.096;2024-02-04T12:54:42;-5.90;99.90
15107;DHT22;7654;45.308;-75.096;2024-02-04T12:57:22;-5.90;99.90
15107;DHT22;7654;45.308;-75.096;2024-02-04T13:00:03;-5.80;99.90
15107;DHT22;7654;45.308;-75.096;2024-02-04T13:02:36;-5.80;99.90
15107;DHT22;7654;45.308;-75.096;2024-02-04T13:05:08;-5.80;99.90
15107;DHT22;7654;45.308;-75.096;2024-02-04T13:07:39;-5.70;99.90
15107;DHT22;7654;45.308;-75.096;2024-02-04T13:10:13;-5.60;99.90
15107;DHT22;7654;45.308;-75.096;2024-02-04T13:12:44;-5.50;99.90
15107;DHT22;7654;45.308;-75.096;2024-02-04T13:15:15;-5.30;99.90
15107;DHT22;7654;45.308;-75.096;2024-02-04T13:17:47;-5.20;99.90
15107;DHT22;7654;45.308;-75.096;2024-02-04T13:20:18;-5.10;99.90
15107;DHT22;7654;45.308;-75.096;2024-02-04T13:22:48;-5.00;99.90
15107;DHT22;7654;45.308;-75.096;2024-02-04T13:25:22;-4.90;99.90
15107;DHT22;7654;45.308;-75.096;2024-02-04T13:27:53;-4.80;99.90
15107;DHT22;7654;45.308;-75.096;2024-02-04T13:30:25;-4.60;99.90
15107;DHT22;7654;45.308;-75.096;2024-02-04T13:32:57;-4.60;99.90
15107;DHT22;7654;45.308;-75.096;2024-02-04T13:35:30;-4.60;99.90
15107;DHT22;7654;45.308;-75.096;2024-02-04T13:38:02;-4.50;99.90
15107;DHT22;7654;45.308;-75.096;2024-02-04T13:40:34;-4.30;99.90
15107;DHT22;7654;45.308;-75.096;2024-02-04T13:43:06;-4.20;99.90
15107;DHT22;7654;45.308;-75.096;2024-02-04T13:45:37;-4.00;99.90
15107;DHT22;7654;45.308;-75.096;2024-02-04T13:48:09;-4.00;99.90
15107;DHT22;7654;45.308;-75.096;2024-02-04T13:50:42;-4.00;99.90
15107;DHT22;7654;45.308;-75.096;2024-02-04T13:53:14;-4.00;99.90
15107;DHT22;7654;45.308;-75.096;2024-02-04T13:55:49;-3.80;99.90
15107;DHT22;7654;45.308;-75.096;2024-02-04T13:58:22;-3.80;99.90
15107;DHT22;7654;45.308;-75.096;2024-02-04T14:00:53;-3.80;99.90
15107;DHT22;7654;45.308;-75.096;2024-02-04T14:03:25;-3.80;99.90
15107;DHT22;7654;45.308;-75.096;2024-02-04T14:05:56;-3.70;99.90
15107;DHT22;7654;45.308;-75.096;2024-02-04T14:08:26;-3.70;99.90
15107;DHT22;7654;45.308;-75.096;2024-02-04T14:10:57;-3.60;99.90
15107;DHT22;7654;45.308;-75.096;2024-02-04T14:13:28;-3.40;99.90
15107;DHT22;7654;45.308;-75.096;2024-02-04T14:15:59;-3.40;99.90
15107;DHT22;7654;45.308;-75.096;2024-02-04T14:18:32;-3.20;99.90
15107;DHT22;7654;45.308;-75.096;2024-02-04T14:21:05;-3.10;99.90
15107;DHT22;7654;45.308;-75.096;2024-02-04T14:23:40;-3.20;99.90
15107;DHT22;7654;45.308;-75.096;2024-02-04T14:26:17;-3.00;99.90
15107;DHT22;7654;45.308;-75.096;2024-02-04T14:28:50;-2.90;99.90
15107;DHT22;7654;45.308;-75.096;2024-02-04T14:31:21;-2.70;99.90
15107;DHT22;7654;45.308;-75.096;2024-02-04T14:33:56;-2.70;99.90
15107;DHT22;7654;45.308;-75.096;2024-02-04T14:36:27;-2.50;99.90
15107;DHT22;7654;45.308;-75.096;2024-02-04T14:39:00;-2.30;99.90
15107;DHT22;7654;45.308;-75.096;2024-02-04T14:41:31;-2.20;99.90
15107;DHT22;7654;45.308;-75.096;2024-02-04T14:44:02;-1.90;99.90
15107;DHT22;7654;45.308;-75.096;2024-02-04T14:46:36;-1.70;99.90
15107;DHT22;7654;45.308;-75.096;2024-02-04T14:49:09;-1.80;99.90
15107;DHT22;7654;45.308;-75.096;2024-02-04T14:51:41;-1.70;99.90
15107;DHT22;7654;45.308;-75.096;2024-02-04T14:54:12;-1.70;99.90
15107;DHT22;7654;45.308;-75.096;2024-02-04T14:56:42;-1.50;99.90
15107;DHT22;7654;45.308;-75.096;2024-02-04T14:59:15;-1.60;99.90
15107;DHT22;7654;45.308;-75.096;2024-02-04T15:01:49;-1.30;99.90
15107;DHT22;7654;45.308;-75.096;2024-02-04T15:04:21;-1.10;99.90
15107;DHT22;7654;45.308;-75.096;2024-02-04T15:06:53;-1.10;99.90
15107;DHT22;7654;45.308;-75.096;2024-02-04T15:09:23;-1.00;99.90
15107;DHT22;7654;45.308;-75.096;2024-02-04T15:11:54;-0.90;99.90
15107;DHT22;7654;45.308;-75.096;2024-02-04T15:14:25;-0.70;99.90
15107;DHT22;7654;45.308;-75.096;2024-02-04T15:16:56;-0.50;99.90
15107;DHT22;7654;45.308;-75.096;2024-02-04T15:19:29;-0.40;99.90
15107;DHT22;7654;45.308;-75.096;2024-02-04T15:22:05;-0.20;99.90
15107;DHT22;7654;45.308;-75.096;2024-02-04T15:24:36;0.00;99.90
15107;DHT22;7654;45.308;-75.096;2024-02-04T15:27:06;-0.10;99.90
15107;DHT22;7654;45.308;-75.096;2024-02-04T15:29:39;-0.20;99.90
15107;DHT22;7654;45.308;-75.096;2024-02-04T15:32:12;-0.30;99.90
15107;DHT22;7654;45.308;-75.096;2024-02-04T15:34:46;-0.30;99.90
15107;DHT22;7654;45.308;-75.096;2024-02-04T15:37:17;-0.30;99.90
15107;DHT22;7654;45.308;-75.096;2024-02-04T15:39:48;-0.10;99.90
15107;DHT22;7654;45.308;-75.096;2024-02-04T15:42:18;-0.50;99.90
15107;DHT22;7654;45.308;-75.096;2024-02-04T15:44:49;-0.30;99.90